Time;durP1;ratioP1;P1;durP2;ratioP2;P2;SDS_P1;SDS_P2;PMS_P1;PMS_P2;Temp;Humidity;BMP_temperature;BMP_pressure;BME280_temperature;BME280_humidity;BME280_pressure;Samples;Min_cycle;Max_cycle;Signal;HPM_P1;HPM_P2
2023/09/09 00:00:40;;;;;;;8.20;6.22;;;23.60;1.00;;;;;;5011434;28;20211;-79
2023/09/09 00:03:07;;;;;;;7.75;5.40;;;23.60;1.00;;;;;;5010905;28;20208;-79
2023/09/09 00:05:35;;;;;;;7.55;6.60;;;23.60;1.00;;;;;;5010246;28;20223;-79
2023/09/09 00:08:03;;;;;;;6.43;5.75;;;23.60;1.00;;;;;;4993489;28;20185;-79
2023/09/09 00:10:36;;;;;;;9.00;6.35;;;23.60;1.00;;;;;;4995436;28;20212;-79
2023/09/09 00:13:05;;;;;;;7.50;6.65;;;23.60;1.00;;;;;;4995217;28;20208;-79
2023/09/09 00:15:34;;;;;;;7.07;6.43;;;23.50;1.00;;;;;;4995744;28;20220;-79
2023/09/09 00:18:03;;;;;;;7.55;6.85;;;23.30;1.00;;;;;;4996606;28;20216;-79
2023/09/09 00:20:31;;;;;;;7.45;6.72;;;23.20;1.00;;;;;;4994790;28;20205;-79
2023/09/09 00:22:58;;;;;;;8.20;7.18;;;23.20;1.00;;;;;;4995805;28;20301;-79
2023/09/09 00:25:26;;;;;;;8.15;6.57;;;23.10;1.00;;;;;;5014774;28;20227;-79
2023/09/09 00:27:54;;;;;;;8.05;7.35;;;23.20;1.00;;;;;;4998925;28;20588;-79
2023/09/09 00:30:23;;;;;;;7.63;6.93;;;23.10;1.00;;;;;;5002310;28;20218;-79
2023/09/09 00:32:51;;;;;;;8.15;7.45;;;23.10;1.00;;;;;;5014613;28;20568;-79
2023/09/09 00:35:18;;;;;;;8.40;7.13;;;23.10;1.00;;;;;;4998462;28;20232;-79
2023/09/09 00:37:46;;;;;;;8.52;7.30;;;23.10;1.00;;;;;;4997399;28;20212;-79
2023/09/09 00:40:13;;;;;;;8.00;7.20;;;23.10;1.00;;;;;;5014807;28;20208;-79
2023/09/09 00:42:41;;;;;;;8.00;7.30;;;23.10;1.00;;;;;;4997741;28;20196;-79
2023/09/09 00:45:09;;;;;;;8.18;7.43;;;22.90;1.00;;;;;;4997615;28;20228;-79
2023/09/09 00:47:39;;;;;;;9.88;8.15;;;22.90;1.00;;;;;;4997898;28;20204;-79
2023/09/09 00:50:10;;;;;;;7.60;6.80;;;22.90;40.20;;;;;;4998531;28;20200;-79
2023/09/09 00:52:39;;;;;;;8.80;7.28;;;22.90;52.10;;;;;;5014381;28;20210;-79
2023/09/09 00:55:07;;;;;;;6.93;6.32;;;22.90;88.80;;;;;;5014968;28;20592;-79
2023/09/09 00:57:35;;;;;;;7.20;6.50;;;23.00;1.00;;;;;;4998678;28;20232;-79
2023/09/09 01:00:09;;;;;;;7.38;5.90;;;23.20;1.00;;;;;;4997735;28;20207;-79
2023/09/09 01:02:38;;;;;;;7.93;7.22;;;23.30;1.00;;;;;;4998192;28;20223;-79
2023/09/09 01:05:07;;;;;;;8.10;7.30;;;23.00;1.00;;;;;;4999287;28;20235;-79
2023/09/09 01:07:45;;;;;;;7.80;7.10;;;22.80;57.00;;;;;;4996724;28;20203;-79
2023/09/09 01:10:13;;;;;;;9.00;7.68;;;22.70;99.90;;;;;;4996919;28;20208;-79
2023/09/09 01:12:42;;;;;;;8.82;7.28;;;22.60;99.90;;;;;;5014074;28;20780;-79
2023/09/09 01:15:10;;;;;;;8.57;7.50;;;22.50;99.90;;;;;;4997113;28;20228;-79
2023/09/09 01:17:39;;;;;;;8.80;7.50;;;22.50;99.90;;;;;;4997204;28;20216;-79
2023/09/09 01:20:13;;;;;;;8.43;7.63;;;22.50;99.90;;;;;;4996985;28;20196;-79
2023/09/09 01:22:43;;;;;;;8.52;7.38;;;22.40;99.90;;;;;;4997200;28;20654;-79
2023/09/09 01:25:11;;;;;;;8.73;7.82;;;22.40;1.00;;;;;;4995247;28;20240;-79
2023/09/09 01:27:39;;;;;;;9.18;7.93;;;22.50;99.90;;;;;;4996422;28;20204;-78
2023/09/09 01:30:08;;;;;;;8.88;8.00;;;22.40;99.90;;;;;;4998366;28;20192;-78
2023/09/09 01:32:35;;;;;;;8.82;7.85;;;22.50;99.90;;;;;;5016452;28;20195;-78
2023/09/09 01:35:06;;;;;;;8.90;8.00;;;22.40;99.90;;;;;;4999957;28;20203;-78
2023/09/09 01:37:34;;;;;;;8.30;7.50;;;22.50;99.90;;;;;;4998222;28;20201;-78
2023/09/09 01:40:09;;;;;;;8.73;7.45;;;22.40;1.00;;;;;;5001049;28;20203;-78
2023/09/09 01:42:38;;;;;;;8.65;7.65;;;22.40;99.90;;;;;;5006877;28;20692;-78
2023/09/09 01:45:06;;;;;;;8.57;7.70;;;22.30;99.90;;;;;;4998277;28;21928;-78
2023/09/09 01:47:34;;;;;;;8.10;7.30;;;22.20;1.00;;;;;;4998298;28;20545;-78
2023/09/09 01:50:01;;;;;;;9.63;7.80;;;22.20;1.00;;;;;;5008906;28;20207;-78
2023/09/09 01:52:29;;;;;;;9.48;8.68;;;22.20;99.90;;;;;;4997034;28;20201;-78
2023/09/09 01:54:56;;;;;;;8.40;7.50;;;22.20;1.00;;;;;;4996649;28;20204;-78
2023/09/09 01:57:26;;;;;;;8.77;8.07;;;22.00;1.00;;;;;;4995446;28;20215;-78
2023/09/09 01:59:54;;;;;;;9.07;8.20;;;22.10;1.00;;;;;;5009076;28;20215;-78
2023/09/09 02:02:22;;;;;;;9.60;8.40;;;22.20;99.90;;;;;;4996473;28;20216;-78
2023/09/09 02:04:50;;;;;;;8.40;7.60;;;22.10;1.00;;;;;;4991713;28;20197;-78
2023/09/09 02:07:17;;;;;;;8.93;7.65;;;21.90;1.00;;;;;;4997110;28;20203;-79
2023/09/09 02:09:45;;;;;;;7.88;7.15;;;21.90;99.90;;;;;;4996719;28;20216;-79
2023/09/09 02:12:12;;;;;;;8.00;7.20;;;21.70;99.90;;;;;;4997338;28;20189;-79
2023/09/09 02:14:41;;;;;;;7.82;7.13;;;21.50;1.00;;;;;;4995131;28;20200;-79
2023/09/09 02:17:09;;;;;;;8.90;8.10;;;21.40;55.10;;;;;;4993533;28;20586;-79
2023/09/09 02:19:36;;;;;;;9.45;8.55;;;21.30;1.00;;;;;;5011945;28;20201;-78
2023/09/09 02:22:05;;;;;;;9.40;8.02;;;21.30;40.60;;;;;;4996296;28;20196;-78
2023/09/09 02:24:32;;;;;;;8.77;7.90;;;21.20;99.90;;;;;;4997497;28;20196;-78
2023/09/09 02:27:02;;;;;;;8.88;8.05;;;21.10;99.90;;;;;;4995108;28;20227;-78
2023/09/09 02:29:30;;;;;;;8.98;8.18;;;21.00;1.00;;;;;;5012356;28;20207;-78
2023/09/09 02:31:59;;;;;;;9.20;8.30;;;21.00;1.00;;;;;;4996240;28;20205;-78
2023/09/09 02:34:26;;;;;;;8.82;8.02;;;21.20;99.90;;;;;;4995403;28;20659;-78
2023/09/09 02:37:13;;;;;;;8.40;7.57;;;20.90;1.00;;;;;;4995109;28;20694;-78
2023/09/09 02:39:41;;;;;;;8.30;7.25;;;20.70;1.00;;;;;;4992106;28;20203;-78
2023/09/09 02:42:12;;;;;;;6.90;6.30;;;20.50;99.90;;;;;;4998834;28;20196;-78
2023/09/09 02:44:40;;;;;;;7.40;6.70;;;20.30;1.00;;;;;;4992573;28;20200;-78
2023/09/09 02:47:10;;;;;;;8.05;7.25;;;20.30;99.90;;;;;;4993497;28;20221;-78
2023/09/09 02:49:39;;;;;;;7.35;6.65;;;20.20;1.00;;;;;;4996538;28;20197;-78
2023/09/09 02:52:07;;;;;;;7.13;6.45;;;20.00;4.80;;;;;;5018015;22;20226;-78
2023/09/09 02:54:35;;;;;;;7.13;6.43;;;20.10;99.90;;;;;;5013933;28;20199;-78
2023/09/09 02:57:03;;;;;;;7.22;6.53;;;20.20;1.00;;;;;;5013338;28;20206;-78
2023/09/09 02:59:32;;;;;;;8.27;7.38;;;20.30;99.90;;;;;;5013329;28;20210;-78
2023/09/09 03:02:00;;;;;;;7.72;6.88;;;20.10;99.90;;;;;;5012086;28;20217;-78
2023/09/09 03:04:29;;;;;;;7.90;7.20;;;20.00;99.90;;;;;;4990139;28;20205;-78
2023/09/09 03:06:56;;;;;;;8.25;7.47;;;20.00;1.00;;;;;;5002904;28;20200;-78
2023/09/09 03:09:25;;;;;;;8.57;7.07;;;20.00;99.90;;;;;;4993374;28;20204;-78
2023/09/09 03:11:53;;;;;;;7.95;7.18;;;20.00;99.90;;;;;;4990087;28;20216;-78
2023/09/09 03:14:21;;;;;;;7.05;6.35;;;20.00;99.90;;;;;;4998251;28;20211;-78
2023/09/09 03:16:48;;;;;;;7.18;6.57;;;20.10;1.00;;;;;;4994957;28;20247;-78
2023/09/09 03:19:16;;;;;;;8.02;7.22;;;20.30;99.90;;;;;;5007273;28;20213;-78
2023/09/09 03:21:44;;;;;;;7.40;6.40;;;20.20;1.00;;;;;;4993442;28;20223;-78
2023/09/09 03:24:12;;;;;;;6.88;6.35;;;20.20;99.90;;;;;;4991226;28;20650;-78
2023/09/09 03:26:39;;;;;;;8.15;7.45;;;20.20;1.00;;;;;;4987936;28;20196;-78
2023/09/09 03:29:07;;;;;;;8.05;7.28;;;20.30;1.00;;;;;;4977740;28;20200;-80
2023/09/09 03:31:35;;;;;;;7.00;6.40;;;20.30;1.00;;;;;;4986269;28;20227;-80
2023/09/09 03:34:02;;;;;;;8.05;6.95;;;20.20;1.00;;;;;;4978837;28;20208;-80
2023/09/09 03:36:30;;;;;;;7.40;6.75;;;20.20;99.90;;;;;;4991523;28;20205;-80
2023/09/09 03:39:01;;;;;;;7.63;6.93;;;20.30;99.90;;;;;;4984148;28;20221;-80
2023/09/09 03:41:30;;;;;;;7.30;6.57;;;20.20;99.90;;;;;;5010555;28;20220;-80
2023/09/09 03:43:57;;;;;;;7.28;6.60;;;20.10;99.90;;;;;;5002881;28;20559;-80
2023/09/09 03:46:25;;;;;;;7.68;7.00;;;20.10;99.90;;;;;;4991371;28;20204;-80
2023/09/09 03:48:53;;;;;;;7.60;6.75;;;20.10;1.00;;;;;;4984386;28;20193;-80
2023/09/09 03:51:20;;;;;;;7.18;6.47;;;20.10;1.00;;;;;;4997852;28;20231;-80
2023/09/09 03:53:48;;;;;;;6.85;6.15;;;20.10;1.00;;;;;;5010402;28;20207;-80
2023/09/09 03:56:18;;;;;;;8.45;7.60;;;20.00;1.00;;;;;;4978734;28;20695;-80
2023/09/09 03:58:45;;;;;;;8.52;7.70;;;19.90;99.90;;;;;;4993760;28;20205;-80
2023/09/09 04:01:13;;;;;;;7.53;6.57;;;20.00;1.00;;;;;;4977050;28;20221;-80
2023/09/09 04:03:42;;;;;;;8.13;7.43;;;20.00;99.90;;;;;;4995253;28;20212;-80
2023/09/09 04:06:13;;;;;;;8.55;7.45;;;20.00;1.00;;;;;;4986554;28;20587;-80
2023/09/09 04:08:55;;;;;;;7.13;6.47;;;19.90;1.00;;;;;;4988023;28;20199;-80
2023/09/09 04:11:24;;;;;;;8.00;7.30;;;19.90;99.90;;;;;;4984848;28;20204;-80
2023/09/09 04:13:52;;;;;;;7.80;7.10;;;19.90;1.00;;;;;;4999920;28;20196;-80
2023/09/09 04:16:20;;;;;;;8.40;7.00;;;19.80;99.90;;;;;;4993365;28;20196;-80
2023/09/09 04:18:47;;;;;;;7.78;7.15;;;19.80;1.00;;;;;;5003071;28;20209;-80
2023/09/09 04:21:20;;;;;;;8.25;7.38;;;19.80;1.00;;;;;;4989869;28;20232;-80
2023/09/09 04:23:47;;;;;;;7.70;6.90;;;19.70;99.90;;;;;;4994046;28;20207;-80
2023/09/09 04:26:15;;;;;;;9.32;7.82;;;19.70;1.00;;;;;;4991898;28;20548;-80
2023/09/09 04:28:43;;;;;;;8.48;7.68;;;19.60;1.00;;;;;;4986211;28;20196;-80
2023/09/09 04:31:11;;;;;;;7.72;7.03;;;19.30;99.90;;;;;;4998097;28;20630;-80
2023/09/09 04:33:41;;;;;;;8.07;7.20;;;19.30;1.00;;;;;;5006264;28;20205;-80
2023/09/09 04:36:09;;;;;;;9.85;7.78;;;19.30;99.90;;;;;;4993681;28;20670;-80
2023/09/09 04:38:37;;;;;;;8.68;7.68;;;19.30;1.00;;;;;;4981827;28;20236;-80
2023/09/09 04:41:04;;;;;;;8.57;7.60;;;19.30;1.00;;;;;;4989730;28;20200;-80
2023/09/09 04:43:32;;;;;;;8.40;7.25;;;19.20;1.00;;;;;;4993667;28;20201;-80
2023/09/09 04:46:00;;;;;;;8.27;7.43;;;19.30;99.90;;;;;;4982138;28;20212;-80
2023/09/09 04:48:28;;;;;;;8.30;7.50;;;19.40;99.90;;;;;;4993164;28;20203;-80
2023/09/09 04:50:56;;;;;;;8.27;7.40;;;19.50;99.90;;;;;;4979042;28;20205;-80
2023/09/09 04:53:24;;;;;;;7.80;7.07;;;19.50;99.90;;;;;;4988451;28;20201;-80
2023/09/09 04:55:51;;;;;;;8.70;7.90;;;19.60;1.00;;;;;;4995340;28;20646;-80
2023/09/09 04:58:19;;;;;;;8.05;7.25;;;19.70;99.90;;;;;;4990196;28;20569;-80
2023/09/09 05:01:00;;;;;;;8.68;7.88;;;19.80;99.90;;;;;;4992591;28;20204;-80
2023/09/09 05:03:27;;;;;;;6.97;6.38;;;19.70;1.00;;;;;;4981037;28;20193;-80
2023/09/09 05:05:55;;;;;;;8.07;7.28;;;19.60;99.90;;;;;;4992279;28;20208;-80
2023/09/09 05:08:22;;;;;;;8.13;7.32;;;19.50;1.00;;;;;;4995925;28;20563;-80
2023/09/09 05:10:50;;;;;;;8.88;7.93;;;19.50;55.70;;;;;;5014000;28;20207;-80
2023/09/09 05:13:17;;;;;;;7.65;6.95;;;19.40;99.90;;;;;;5004930;28;20204;-80
2023/09/09 05:15:47;;;;;;;7.78;7.07;;;19.30;1.00;;;;;;4990067;28;20572;-80
2023/09/09 05:18:16;;;;;;;8.95;8.15;;;19.10;1.00;;;;;;4995310;28;20200;-80
2023/09/09 05:20:44;;;;;;;8.77;7.97;;;18.90;1.00;;;;;;5004759;28;20211;-78
2023/09/09 05:23:12;;;;;;;8.60;7.80;;;18.90;1.00;;;;;;4995376;28;20225;-78
2023/09/09 05:25:39;;;;;;;7.88;7.03;;;18.80;1.00;;;;;;4987540;28;20643;-78
2023/09/09 05:28:06;;;;;;;7.70;6.95;;;18.90;1.00;;;;;;4995850;28;20200;-78
2023/09/09 05:30:46;;;;;;;8.27;7.47;;;18.90;99.90;;;;;;4989879;28;20211;-78
2023/09/09 05:33:14;;;;;;;8.05;6.45;;;19.20;1.00;;;;;;4994900;28;20251;-78
2023/09/09 05:35:43;;;;;;;7.70;7.00;;;19.30;99.90;;;;;;4994601;28;20192;-78
2023/09/09 05:38:11;;;;;;;7.85;7.15;;;19.40;99.90;;;;;;4994672;28;20223;-78
2023/09/09 05:40:39;;;;;;;7.25;6.55;;;19.50;1.00;;;;;;4986263;28;20212;-78
2023/09/09 05:43:06;;;;;;;7.72;7.03;;;19.50;99.90;;;;;;4993375;28;20216;-78
2023/09/09 05:45:33;;;;;;;8.65;7.80;;;19.60;1.00;;;;;;4996147;28;20208;-78
2023/09/09 05:48:01;;;;;;;7.70;6.90;;;19.60;99.90;;;;;;4996847;28;20208;-78
2023/09/09 05:50:30;;;;;;;9.60;7.03;;;19.70;74.20;;;;;;5010863;28;20200;-78
2023/09/09 05:52:59;;;;;;;8.98;7.20;;;19.80;1.00;;;;;;5002599;28;20220;-78
2023/09/09 05:55:26;;;;;;;7.95;7.15;;;19.90;1.00;;;;;;4989186;28;20196;-78
2023/09/09 05:57:54;;;;;;;9.50;7.70;;;20.10;1.00;;;;;;4983049;28;20201;-78
2023/09/09 06:00:21;;;;;;;8.70;7.90;;;20.10;99.90;;;;;;4985748;28;20217;-78
2023/09/09 06:02:49;;;;;;;8.65;7.85;;;20.20;1.00;;;;;;4988766;28;20220;-78
2023/09/09 06:05:17;;;;;;;8.80;7.90;;;20.10;99.90;;;;;;4987378;28;20201;-79
2023/09/09 06:07:45;;;;;;;9.00;8.20;;;19.80;99.90;;;;;;5002874;28;20203;-79
2023/09/09 06:10:15;;;;;;;9.55;8.65;;;19.80;1.00;;;;;;4993232;28;20200;-79
2023/09/09 06:12:42;;;;;;;9.65;7.80;;;19.80;99.90;;;;;;4988845;28;20713;-79
2023/09/09 06:15:11;;;;;;;8.98;8.02;;;20.00;99.90;;;;;;4995902;28;20201;-79
2023/09/09 06:17:41;;;;;;;8.88;8.07;;;20.30;99.90;;;;;;5003891;28;20208;-79
2023/09/09 06:20:11;;;;;;;10.15;7.93;;;20.20;99.90;;;;;;4996100;28;20227;-79
2023/09/09 06:22:39;;;;;;;9.20;8.38;;;20.00;99.90;;;;;;4996360;28;20231;-79
2023/09/09 06:25:08;;;;;;;8.52;7.38;;;20.20;99.90;;;;;;4989419;28;20193;-79
2023/09/09 06:27:37;;;;;;;9.43;8.48;;;20.40;99.90;;;;;;5009380;28;20200;-79
2023/09/09 06:30:06;;;;;;;8.77;7.85;;;20.60;1.00;;;;;;4982051;28;20201;-79
2023/09/09 06:32:34;;;;;;;9.15;8.18;;;20.70;1.00;;;;;;4994030;28;20225;-79
2023/09/09 06:35:02;;;;;;;9.35;8.30;;;20.80;99.90;;;;;;4988291;28;20204;-79
2023/09/09 06:37:30;;;;;;;9.25;8.13;;;20.80;99.90;;;;;;4985176;28;20209;-79
2023/09/09 06:39:57;;;;;;;8.73;7.85;;;20.80;1.00;;;;;;4997434;28;20220;-79
2023/09/09 06:42:24;;;;;;;8.18;7.47;;;21.00;1.00;;;;;;4989699;28;20229;-79
2023/09/09 06:44:55;;;;;;;8.25;7.40;;;21.10;99.90;;;;;;5003612;28;20197;-79
2023/09/09 06:47:22;;;;;;;9.02;7.93;;;21.30;99.90;;;;;;4996082;28;20211;-79
2023/09/09 06:49:50;;;;;;;8.43;7.40;;;21.50;99.90;;;;;;4985275;28;20197;-79
2023/09/09 06:52:18;;;;;;;7.80;7.00;;;21.70;1.00;;;;;;4992984;28;20239;-79
2023/09/09 06:54:46;;;;;;;8.20;7.38;;;22.00;43.70;;;;;;4987007;28;20201;-79
2023/09/09 06:57:13;;;;;;;8.10;7.20;;;22.20;1.00;;;;;;4977594;28;20192;-79
2023/09/09 06:59:40;;;;;;;8.45;7.05;;;22.40;63.30;;;;;;4999572;28;20203;-79
2023/09/09 07:02:09;;;;;;;8.77;7.88;;;22.60;1.00;;;;;;4995026;28;20229;-79
2023/09/09 07:04:37;;;;;;;8.30;7.57;;;22.60;99.90;;;;;;4994715;28;20670;-79
2023/09/09 07:07:04;;;;;;;8.65;7.78;;;22.70;1.00;;;;;;4994165;28;20200;-79
2023/09/09 07:09:32;;;;;;;8.50;7.70;;;22.80;99.90;;;;;;4987923;28;20207;-79
2023/09/09 07:12:00;;;;;;;8.50;7.57;;;22.80;49.60;;;;;;4995621;28;20220;-79
2023/09/09 07:14:27;;;;;;;9.48;7.72;;;22.90;1.00;;;;;;4993531;28;20460;-80
2023/09/09 07:16:56;;;;;;;8.18;7.38;;;23.10;1.00;;;;;;4986543;28;20192;-80
2023/09/09 07:19:24;;;;;;;8.00;7.30;;;23.20;99.90;;;;;;5007880;28;20203;-79
2023/09/09 07:21:52;;;;;;;8.10;7.25;;;23.10;27.00;;;;;;4992307;28;20223;-79
2023/09/09 07:24:19;;;;;;;9.98;7.90;;;23.00;1.00;;;;;;4985382;28;20192;-79
2023/09/09 07:26:46;;;;;;;8.43;7.47;;;22.90;1.00;;;;;;4993668;28;20203;-79
2023/09/09 07:29:14;;;;;;;8.73;7.82;;;22.80;1.00;;;;;;4988534;28;20197;-79
2023/09/09 07:31:41;;;;;;;10.27;7.10;;;22.80;1.00;;;;;;4977913;28;20212;-79
2023/09/09 07:34:09;;;;;;;8.60;7.70;;;23.00;99.90;;;;;;4989529;28;20197;-79
2023/09/09 07:36:38;;;;;;;8.32;7.57;;;23.20;99.90;;;;;;4994955;28;20559;-80
2023/09/09 07:39:06;;;;;;;8.13;7.30;;;23.40;99.90;;;;;;4990172;28;20192;-79
2023/09/09 07:41:33;;;;;;;8.30;7.50;;;23.60;99.90;;;;;;4986138;28;20228;-79
2023/09/09 07:44:00;;;;;;;11.07;7.57;;;23.60;99.90;;;;;;4993184;28;20204;-79
2023/09/09 07:46:29;;;;;;;8.80;7.95;;;23.80;7.80;;;;;;5000062;28;20215;-80
2023/09/09 07:48:56;;;;;;;8.98;8.02;;;23.70;1.00;;;;;;5003671;28;20207;-79
2023/09/09 07:51:23;;;;;;;10.20;7.88;;;23.70;35.60;;;;;;4980492;28;20220;-79
2023/09/09 07:53:52;;;;;;;10.00;7.65;;;23.80;1.00;;;;;;4995921;28;20203;-79
2023/09/09 07:56:20;;;;;;;9.35;7.88;;;23.90;58.40;;;;;;4996403;28;20557;-79
2023/09/09 07:58:47;;;;;;;8.45;7.65;;;24.00;99.90;;;;;;5004739;28;20188;-79
2023/09/09 08:01:15;;;;;;;8.00;7.30;;;24.00;90.70;;;;;;5008590;28;20587;-79
2023/09/09 08:03:42;;;;;;;8.52;7.60;;;24.10;1.00;;;;;;4986989;28;20196;-79
2023/09/09 08:06:10;;;;;;;8.90;7.93;;;24.10;99.90;;;;;;4986666;28;20227;-79
2023/09/09 08:08:37;;;;;;;8.07;7.07;;;24.10;1.00;;;;;;4984449;28;20216;-79
2023/09/09 08:11:06;;;;;;;7.72;7.03;;;24.20;1.00;;;;;;4986981;28;20207;-79
2023/09/09 08:13:34;;;;;;;8.85;7.88;;;24.30;1.00;;;;;;4986641;28;20204;-79
2023/09/09 08:16:01;;;;;;;8.48;7.68;;;24.30;1.00;;;;;;4991176;28;20220;-79
2023/09/09 08:18:29;;;;;;;8.32;7.53;;;24.30;1.00;;;;;;4977345;28;20193;-79
2023/09/09 08:20:56;;;;;;;8.32;7.47;;;24.40;1.00;;;;;;4991069;28;20224;-79
2023/09/09 08:23:24;;;;;;;9.07;8.18;;;24.50;1.00;;;;;;4992334;28;20694;-79
2023/09/09 08:25:51;;;;;;;8.93;8.00;;;24.50;1.00;;;;;;4986926;28;20203;-79
2023/09/09 08:28:20;;;;;;;8.68;7.80;;;24.50;1.00;;;;;;4992706;28;20212;-79
2023/09/09 08:30:47;;;;;;;8.75;7.85;;;24.60;1.00;;;;;;4995137;28;20549;-79
2023/09/09 08:33:15;;;;;;;8.57;7.88;;;24.70;1.00;;;;;;4992619;28;20228;-79
2023/09/09 08:35:42;;;;;;;9.57;7.95;;;24.70;1.00;;;;;;4993303;28;20215;-80
2023/09/09 08:38:09;;;;;;;9.95;7.90;;;24.80;1.00;;;;;;4995751;28;20192;-79
2023/09/09 08:40:46;;;;;;;8.55;7.70;;;24.90;1.00;;;;;;4998171;28;20213;-79
2023/09/09 08:43:24;;;;;;;9.00;7.63;;;24.90;1.00;;;;;;5002985;28;20609;-79
2023/09/09 08:46:01;;;;;;;8.45;7.65;;;25.00;1.00;;;;;;4990404;28;20208;-79
2023/09/09 08:48:34;;;;;;;8.82;7.93;;;25.00;1.00;;;;;;4996497;28;20216;-79
2023/09/09 08:51:05;;;;;;;8.43;7.60;;;25.10;1.00;;;;;;5003272;28;20539;-79
2023/09/09 08:53:42;;;;;;;9.07;8.18;;;25.30;1.00;;;;;;5061377;22;20231;-85
2023/09/09 08:56:37;;;;;;;;;;;;;;;;;;;;;
2023/09/09 08:59:44;;;;;;;8.10;7.40;;;25.30;1.00;;;;;;5032986;28;20197;-85
2023/09/09 09:02:24;;;;;;;8.75;7.80;;;25.40;1.00;;;;;;5028621;28;20228;-85
2023/09/09 09:05:16;;;;;;;10.68;7.93;;;25.40;1.00;;;;;;5027531;28;20194;-85
2023/09/09 09:07:54;;;;;;;9.88;8.77;;;25.50;1.00;;;;;;5033640;28;20244;-85
2023/09/09 09:10:30;;;;;;;8.07;7.38;;;25.60;1.00;;;;;;5021188;28;20199;-85
2023/09/09 09:13:09;;;;;;;9.20;8.30;;;25.60;1.00;;;;;;5021837;28;20210;-85
2023/09/09 09:15:52;;;;;;;9.93;7.85;;;25.60;1.00;;;;;;5022542;28;20199;-85
2023/09/09 09:18:50;;;;;;;8.82;8.00;;;25.60;1.00;;;;;;5036873;28;20195;-84
2023/09/09 09:21:31;;;;;;;8.95;8.00;;;25.60;1.00;;;;;;5031638;28;20218;-85
2023/09/09 09:24:08;;;;;;;8.82;8.13;;;25.70;1.00;;;;;;5035494;28;20545;-85
2023/09/09 09:26:36;;;;;;;8.27;7.43;;;25.90;1.00;;;;;;5036549;28;20285;-85
2023/09/09 09:29:16;;;;;;;7.72;6.88;;;25.90;1.00;;;;;;5032006;28;20188;-85
2023/09/09 09:31:56;;;;;;;10.50;7.03;;;26.00;1.00;;;;;;5029726;28;20691;-85
2023/09/09 09:34:41;;;;;;;9.35;7.15;;;26.10;1.00;;;;;;5036278;28;20207;-85
2023/09/09 09:40:04;;;;;;;8.38;7.55;;;26.30;99.90;;;;;;4979944;28;20650;-85
2023/09/09 09:42:56;;;;;;;8.32;7.53;;;26.30;99.90;;;;;;5019282;28;20250;-85
2023/09/09 09:48:34;;;;;;;11.02;7.53;;;26.40;1.00;;;;;;5022072;28;20219;-85
2023/09/09 09:51:28;;;;;;;8.18;7.38;;;26.50;99.90;;;;;;5032904;28;20200;-85
2023/09/09 09:54:00;;;;;;;7.72;6.93;;;26.70;1.00;;;;;;5028558;28;20199;-85
2023/09/09 09:56:49;;;;;;;9.20;7.88;;;26.80;1.00;;;;;;5032021;28;20206;-85
2023/09/09 09:59:34;;;;;;;10.55;7.13;;;26.90;99.90;;;;;;5020241;28;20200;-85
2023/09/09 10:02:32;;;;;;;10.25;7.15;;;26.90;99.90;;;;;;5026598;28;20583;-85
2023/09/09 10:05:09;;;;;;;12.30;7.45;;;27.00;99.90;;;;;;5030365;28;20196;-85
2023/09/09 10:07:48;;;;;;;10.50;7.75;;;27.10;99.90;;;;;;5035967;28;20214;-86
2023/09/09 10:10:24;;;;;;;9.63;7.90;;;27.20;99.90;;;;;;5043199;28;20186;-86
2023/09/09 10:13:07;;;;;;;9.13;8.23;;;27.30;99.90;;;;;;5032349;28;20207;-85
2023/09/09 10:15:42;;;;;;;9.77;8.48;;;27.50;99.90;;;;;;5038994;28;20199;-85
2023/09/09 10:18:32;;;;;;;11.60;8.05;;;27.50;9.00;;;;;;5053994;28;20198;-85
2023/09/09 10:21:12;;;;;;;10.98;8.40;;;27.50;99.90;;;;;;5043913;28;20180;-85
2023/09/09 10:23:54;;;;;;;;;;;;;;;;;;;;;
2023/09/09 10:26:23;;;;;;;12.27;8.18;;;27.50;99.90;;;;;;5045432;28;20208;-85
2023/09/09 10:29:09;;;;;;;11.38;8.13;;;27.70;99.90;;;;;;5032933;28;20198;-85
2023/09/09 10:31:52;;;;;;;10.35;7.95;;;27.70;99.90;;;;;;5041574;28;20192;-85
2023/09/09 10:34:32;;;;;;;11.55;7.63;;;28.00;99.90;;;;;;5029984;28;20203;-85
2023/09/09 10:37:14;;;;;;;13.70;7.75;;;28.20;99.90;;;;;;5033554;28;20191;-85
2023/09/09 10:40:02;;;;;;;11.05;8.50;;;28.30;97.90;;;;;;5030423;28;20199;-85
2023/09/09 10:42:48;;;;;;;8.80;7.90;;;28.30;1.60;;;;;;5018695;28;20223;-85
2023/09/09 10:45:44;;;;;;;9.20;7.40;;;28.20;99.90;;;;;;5026734;28;20192;-85
2023/09/09 10:48:14;;;;;;;13.00;8.20;;;28.30;12.50;;;;;;5027502;28;20212;-85
2023/09/09 10:50:49;;;;;;;12.40;8.00;;;28.40;1.00;;;;;;5046740;28;20190;-86
2023/09/09 10:53:46;;;;;;;8.52;7.70;;;28.40;99.90;;;;;;5040442;28;20226;-85
2023/09/09 10:56:37;;;;;;;8.82;7.30;;;28.40;99.90;;;;;;5042179;28;20195;-85
2023/09/09 10:59:21;;;;;;;11.82;8.30;;;28.50;99.90;;;;;;5030803;28;20199;-85
2023/09/09 11:02:18;;;;;;;12.30;8.18;;;28.70;99.90;;;;;;5025451;28;20234;-85
2023/09/09 11:05:00;;;;;;;11.63;7.68;;;28.90;1.00;;;;;;5022875;28;20212;-85
2023/09/09 11:10:35;;;;;;;8.45;6.93;;;29.00;99.90;;;;;;5031381;28;20563;-85
2023/09/09 11:13:16;;;;;;;10.75;7.75;;;29.30;99.90;;;;;;5026725;28;20211;-85
2023/09/09 11:16:01;;;;;;;12.18;7.80;;;29.60;1.00;;;;;;5019698;28;20200;-85
2023/09/09 11:18:46;;;;;;;10.93;8.25;;;29.50;1.00;;;;;;5023866;28;20203;-85
2023/09/09 11:21:38;;;;;;;8.50;7.22;;;29.30;99.90;;;;;;5017807;28;20198;-85
2023/09/09 11:24:19;;;;;;;10.23;8.48;;;29.40;1.00;;;;;;5020685;28;20195;-85
2023/09/09 11:26:59;;;;;;;10.23;8.10;;;29.70;99.90;;;;;;5020280;28;20200;-85
2023/09/09 11:29:40;;;;;;;8.23;7.53;;;29.40;26.70;;;;;;5017814;28;20211;-85
2023/09/09 11:32:15;;;;;;;11.25;7.15;;;29.50;1.00;;;;;;5023110;28;20211;-85
2023/09/09 11:34:48;;;;;;;12.75;7.03;;;29.70;1.00;;;;;;5016897;28;20203;-85
2023/09/09 11:37:18;;;;;;;11.90;7.45;;;29.60;99.90;;;;;;5025760;28;20222;-85
2023/09/09 11:39:51;;;;;;;8.88;7.00;;;29.80;1.00;;;;;;5023983;28;20563;-85
2023/09/09 11:42:28;;;;;;;11.02;7.10;;;29.50;1.00;;;;;;5024265;28;20223;-85
2023/09/09 11:44:59;;;;;;;9.13;7.32;;;29.70;13.10;;;;;;5023879;28;20203;-85
2023/09/09 11:47:27;;;;;;;12.63;6.82;;;30.10;99.90;;;;;;5021985;28;21724;-85
2023/09/09 11:50:00;;;;;;;11.25;7.47;;;30.00;99.90;;;;;;5032040;28;20208;-85
2023/09/09 11:52:28;;;;;;;13.38;6.32;;;30.40;99.90;;;;;;5015972;28;20228;-85
2023/09/09 11:55:08;;;;;;;7.20;6.05;;;30.60;1.00;;;;;;5028307;28;20199;-85
2023/09/09 11:57:56;;;;;;;12.07;6.70;;;30.70;1.00;;;;;;5028898;28;20207;-83
2023/09/09 12:00:24;;;;;;;10.98;6.45;;;30.50;1.00;;;;;;5027486;28;20223;-83
2023/09/09 12:06:55;;;;;;;14.40;6.97;;;30.10;1.00;;;;;;5051107;28;20177;-85
2023/09/09 12:12:50;;;;;;;8.27;6.22;;;30.80;1.00;;;;;;5024643;28;20222;-85
2023/09/09 12:15:26;;;;;;;6.45;5.78;;;31.10;99.90;;;;;;5036999;28;20667;-85
2023/09/09 12:18:09;;;;;;;10.85;6.22;;;31.00;1.00;;;;;;5039626;28;20194;-85
2023/09/09 12:21:26;;;;;;;11.30;6.47;;;30.80;99.90;;;;;;5033571;28;20214;-85
2023/09/09 12:23:59;;;;;;;11.57;5.80;;;31.20;99.90;;;;;;5032981;28;20237;-85
2023/09/09 12:26:40;;;;;;;8.52;6.05;;;31.10;99.90;;;;;;5030427;28;20203;-85
2023/09/09 12:29:17;;;;;;;8.73;6.13;;;30.90;1.00;;;;;;5028930;28;20198;-85
2023/09/09 12:31:54;;;;;;;9.80;5.68;;;31.20;99.90;;;;;;5032452;28;20213;-85
2023/09/09 12:34:27;;;;;;;10.43;6.30;;;31.20;1.00;;;;;;5059978;28;20178;-85
2023/09/09 12:37:00;;;;;;;7.65;5.63;;;31.00;99.90;;;;;;5038236;28;20202;-83
2023/09/09 12:39:35;;;;;;;11.35;5.60;;;31.70;99.90;;;;;;5039296;28;20297;-83
2023/09/09 12:42:05;;;;;;;10.57;5.68;;;31.30;1.00;;;;;;5034924;28;20730;-83
2023/09/09 12:44:47;;;;;;;10.68;5.53;;;31.00;99.90;;;;;;5025233;28;20199;-83
2023/09/09 12:47:21;;;;;;;6.63;5.78;;;31.20;1.00;;;;;;5047194;28;20202;-83
2023/09/09 12:49:52;;;;;;;8.50;5.32;;;31.60;99.90;;;;;;5024045;28;20210;-83
2023/09/09 12:52:23;;;;;;;11.10;5.05;;;31.20;99.90;;;;;;5028557;28;20684;-84
2023/09/09 12:55:02;;;;;;;7.13;5.20;;;31.30;99.90;;;;;;5037738;28;20201;-83
2023/09/09 12:57:42;;;;;;;10.05;5.05;;;32.50;99.90;;;;;;5033122;28;20207;-83
2023/09/09 13:03:20;;;;;;;8.85;5.57;;;31.70;1.00;;;;;;5043072;28;20209;-85
2023/09/09 13:06:02;;;;;;;7.53;4.80;;;31.90;1.00;;;;;;5039677;28;20194;-85
2023/09/09 13:08:37;;;;;;;11.65;4.93;;;31.50;1.00;;;;;;5032013;28;20194;-85
2023/09/09 13:11:14;;;;;;;9.15;5.57;;;31.40;1.00;;;;;;5031503;28;20201;-85
2023/09/09 13:13:46;;;;;;;8.50;5.32;;;31.50;1.00;;;;;;5029205;28;20214;-85
2023/09/09 13:16:32;;;;;;;7.32;5.20;;;31.40;1.00;;;;;;5048801;28;20567;-85
2023/09/09 13:19:03;;;;;;;11.18;5.25;;;31.20;1.00;;;;;;5036106;28;20209;-85
2023/09/09 13:21:52;;;;;;;8.95;5.13;;;33.00;1.00;;;;;;5057097;28;20190;-85
2023/09/09 13:24:25;;;;;;;8.50;4.97;;;31.90;99.90;;;;;;5026747;28;20203;-85
2023/09/09 13:26:56;;;;;;;9.88;4.93;;;32.60;99.90;;;;;;5035446;28;20217;-85
2023/09/09 13:29:28;;;;;;;7.45;4.90;;;32.80;99.90;;;;;;5022072;28;20199;-85
2023/09/09 13:32:00;;;;;;;8.55;5.03;;;33.50;99.90;;;;;;5041609;28;20240;-85
2023/09/09 13:34:38;;;;;;;9.85;5.10;;;33.60;99.90;;;;;;5038330;28;20191;-85
2023/09/09 13:40:20;;;;;;;9.40;5.28;;;33.10;17.90;;;;;;5056533;28;20178;-83